sensor_id;sensor_type;location;lat;lon;timestamp;pressure;altitude;pressure_sealevel;temperature;humidity
5814;BME280;2933;52.302;8.134;2023-05-25T00:02:02;101476.50;;;8.66;100.00
5814;BME280;2933;52.302;8.134;2023-05-25T00:07:05;101477.19;;;8.71;100.00
5814;BME280;2933;52.302;8.134;2023-05-25T00:12:07;101468.88;;;8.36;100.00
5814;BME280;2933;52.302;8.134;2023-05-25T00:17:10;101474.06;;;8.36;100.00
5814;BME280;2933;52.302;8.134;2023-05-25T00:22:11;101468.59;;;8.69;100.00
5814;BME280;2933;52.302;8.134;2023-05-25T00:27:13;101471.72;;;8.55;100.00
5814;BME280;2933;52.302;8.134;2023-05-25T00:32:17;101468.13;;;8.58;100.00
5814;BME280;2933;52.302;8.134;2023-05-25T00:37:19;101470.97;;;8.76;100.00
5814;BME280;2933;52.302;8.134;2023-05-25T00:42:21;101465.31;;;8.64;100.00
5814;BME280;2933;52.302;8.134;2023-05-25T00:47:25;101469.03;;;8.81;100.00
5814;BME280;2933;52.302;8.134;2023-05-25T00:52:27;101467.22;;;8.83;100.00
5814;BME280;2933;52.302;8.134;2023-05-25T00:57:31;101471.06;;;8.72;100.00
5814;BME280;2933;52.302;8.134;2023-05-25T01:02:40;101477.28;;;8.92;100.00
5814;BME280;2933;52.302;8.134;2023-05-25T01:07:43;101470.94;;;8.99;100.00
5814;BME280;2933;52.302;8.134;2023-05-25T01:12:49;101478.34;;;9.10;100.00
5814;BME280;2933;52.302;8.134;2023-05-25T01:17:53;101473.41;;;9.02;100.00
5814;BME280;2933;52.302;8.134;2023-05-25T01:23:04;101466.28;;;9.08;100.00
5814;BME280;2933;52.302;8.134;2023-05-25T01:28:11;101474.63;;;9.38;100.00
5814;BME280;2933;52.302;8.134;2023-05-25T01:33:15;101483.31;;;9.38;100.00
5814;BME280;2933;52.302;8.134;2023-05-25T01:38:19;101479.03;;;9.37;100.00
5814;BME280;2933;52.302;8.134;2023-05-25T01:43:21;101480.34;;;9.26;100.00
5814;BME280;2933;52.302;8.134;2023-05-25T01:48:26;101482.16;;;9.46;100.00
5814;BME280;2933;52.302;8.134;2023-05-25T01:53:35;101460.94;;;9.33;100.00
5814;BME280;2933;52.302;8.134;2023-05-25T01:58:38;101468.44;;;9.41;100.00
5814;BME280;2933;52.302;8.134;2023-05-25T02:03:41;101471.53;;;9.50;100.00
5814;BME280;2933;52.302;8.134;2023-05-25T02:08:45;101478.63;;;9.47;100.00
5814;BME280;2933;52.302;8.134;2023-05-25T02:13:46;101480.03;;;9.33;100.00
5814;BME280;2933;52.302;8.134;2023-05-25T02:18:48;101482.22;;;9.44;100.00
5814;BME280;2933;52.302;8.134;2023-05-25T02:23:51;101484.59;;;9.28;100.00
5814;BME280;2933;52.302;8.134;2023-05-25T02:28:54;101486.53;;;9.45;100.00
5814;BME280;2933;52.302;8.134;2023-05-25T02:33:55;101482.53;;;9.36;100.00
5814;BME280;2933;52.302;8.134;2023-05-25T02:38:58;101486.75;;;9.17;100.00
5814;BME280;2933;52.302;8.134;2023-05-25T02:44:00;101485.47;;;9.05;100.00
5814;BME280;2933;52.302;8.134;2023-05-25T02:49:01;101484.53;;;9.08;100.00
5814;BME280;2933;52.302;8.134;2023-05-25T02:54:04;101504.22;;;8.93;100.00
5814;BME280;2933;52.302;8.134;2023-05-25T02:59:06;101509.66;;;9.09;100.00
5814;BME280;2933;52.302;8.134;2023-05-25T03:04:07;101511.38;;;8.86;100.00
5814;BME280;2933;52.302;8.134;2023-05-25T03:09:11;101510.78;;;8.79;100.00
5814;BME280;2933;52.302;8.134;2023-05-25T03:14:12;101507.66;;;8.93;100.00
5814;BME280;2933;52.302;8.134;2023-05-25T03:19:14;101507.94;;;9.09;100.00
5814;BME280;2933;52.302;8.134;2023-05-25T03:24:17;101504.97;;;8.95;100.00
5814;BME280;2933;52.302;8.134;2023-05-25T03:29:18;101510.69;;;9.04;100.00
5814;BME280;2933;52.302;8.134;2023-05-25T03:34:20;101515.75;;;9.09;100.00
5814;BME280;2933;52.302;8.134;2023-05-25T03:39:25;101518.88;;;9.17;100.00
5814;BME280;2933;52.302;8.134;2023-05-25T03:44:26;101515.41;;;9.41;100.00
5814;BME280;2933;52.302;8.134;2023-05-25T03:49:28;101522.13;;;9.46;100.00
5814;BME280;2933;52.302;8.134;2023-05-25T03:54:32;101520.44;;;9.45;100.00
5814;BME280;2933;52.302;8.134;2023-05-25T03:59:34;101518.81;;;9.43;100.00
5814;BME280;2933;52.302;8.134;2023-05-25T04:04:35;101519.16;;;9.33;100.00
5814;BME280;2933;52.302;8.134;2023-05-25T04:09:42;101524.13;;;9.40;100.00
5814;BME280;2933;52.302;8.134;2023-05-25T04:14:43;101530.81;;;9.47;100.00
5814;BME280;2933;52.302;8.134;2023-05-25T04:19:45;101535.03;;;9.49;100.00
5814;BME280;2933;52.302;8.134;2023-05-25T04:24:48;101533.72;;;9.61;100.00
5814;BME280;2933;52.302;8.134;2023-05-25T04:29:49;101540.31;;;9.70;100.00
5814;BME280;2933;52.302;8.134;2023-05-25T04:34:53;101547.78;;;9.79;100.00
5814;BME280;2933;52.302;8.134;2023-05-25T04:39:57;101539.34;;;9.73;100.00
5814;BME280;2933;52.302;8.134;2023-05-25T04:44:58;101542.78;;;9.73;100.00
5814;BME280;2933;52.302;8.134;2023-05-25T04:50:00;101551.91;;;9.85;100.00
5814;BME280;2933;52.302;8.134;2023-05-25T04:55:04;101545.03;;;10.05;100.00
5814;BME280;2933;52.302;8.134;2023-05-25T05:00:06;101550.31;;;9.81;100.00
5814;BME280;2933;52.302;8.134;2023-05-25T05:05:10;101555.91;;;9.94;100.00
5814;BME280;2933;52.302;8.134;2023-05-25T05:10:12;101559.84;;;9.82;100.00
5814;BME280;2933;52.302;8.134;2023-05-25T05:15:15;101568.78;;;9.98;100.00
5814;BME280;2933;52.302;8.134;2023-05-25T05:20:16;101571.00;;;10.28;100.00
5814;BME280;2933;52.302;8.134;2023-05-25T05:25:20;101578.22;;;10.44;100.00
5814;BME280;2933;52.302;8.134;2023-05-25T05:30:22;101580.84;;;10.22;100.00
5814;BME280;2933;52.302;8.134;2023-05-25T05:35:23;101592.63;;;10.32;100.00
5814;BME280;2933;52.302;8.134;2023-05-25T05:40:26;101594.06;;;10.39;100.00
5814;BME280;2933;52.302;8.134;2023-05-25T05:45:28;101595.06;;;10.57;100.00
5814;BME280;2933;52.302;8.134;2023-05-25T05:50:29;101606.84;;;10.47;100.00
5814;BME280;2933;52.302;8.134;2023-05-25T05:55:32;101606.84;;;10.47;100.00
5814;BME280;2933;52.302;8.134;2023-05-25T06:00:34;101619.78;;;10.69;100.00
5814;BME280;2933;52.302;8.134;2023-05-25T06:05:35;101619.81;;;10.48;100.00
5814;BME280;2933;52.302;8.134;2023-05-25T06:10:38;101622.50;;;10.47;100.00
5814;BME280;2933;52.302;8.134;2023-05-25T06:15:41;101626.03;;;10.46;100.00
5814;BME280;2933;52.302;8.134;2023-05-25T06:20:43;101629.50;;;10.67;100.00
5814;BME280;2933;52.302;8.134;2023-05-25T06:25:46;101630.47;;;10.64;100.00
5814;BME280;2933;52.302;8.134;2023-05-25T06:30:47;101638.34;;;10.83;100.00
5814;BME280;2933;52.302;8.134;2023-05-25T06:35:49;101629.34;;;10.70;100.00
5814;BME280;2933;52.302;8.134;2023-05-25T06:40:53;101634.78;;;10.65;100.00
5814;BME280;2933;52.302;8.134;2023-05-25T06:45:54;101649.72;;;10.82;100.00
5814;BME280;2933;52.302;8.134;2023-05-25T06:50:56;101635.84;;;11.01;100.00
5814;BME280;2933;52.302;8.134;2023-05-25T06:55:59;101654.88;;;10.84;100.00
5814;BME280;2933;52.302;8.134;2023-05-25T07:01:01;101656.38;;;10.69;100.00
5814;BME280;2933;52.302;8.134;2023-05-25T07:06:02;101656.28;;;10.93;100.00
5814;BME280;2933;52.302;8.134;2023-05-25T07:11:05;101655.75;;;10.85;100.00
5814;BME280;2933;52.302;8.134;2023-05-25T07:16:09;101664.34;;;11.07;100.00
5814;BME280;2933;52.302;8.134;2023-05-25T07:21:11;101676.16;;;11.16;100.00
5814;BME280;2933;52.302;8.134;2023-05-25T07:26:14;101668.97;;;11.78;100.00
5814;BME280;2933;52.302;8.134;2023-05-25T07:31:15;101666.03;;;12.23;100.00
5814;BME280;2933;52.302;8.134;2023-05-25T07:36:18;101675.97;;;11.97;100.00
5814;BME280;2933;52.302;8.134;2023-05-25T07:41:20;101685.88;;;11.90;100.00
5814;BME280;2933;52.302;8.134;2023-05-25T07:46:22;101685.94;;;12.08;100.00
5814;BME280;2933;52.302;8.134;2023-05-25T07:51:27;101694.25;;;11.99;100.00
5814;BME280;2933;52.302;8.134;2023-05-25T07:56:31;101702.03;;;11.81;100.00
5814;BME280;2933;52.302;8.134;2023-05-25T08:01:33;101709.53;;;12.08;100.00
5814;BME280;2933;52.302;8.134;2023-05-25T08:06:35;101707.44;;;11.95;100.00
5814;BME280;2933;52.302;8.134;2023-05-25T08:11:38;101707.28;;;11.81;100.00
5814;BME280;2933;52.302;8.134;2023-05-25T08:16:40;101718.13;;;11.91;100.00
5814;BME280;2933;52.302;8.134;2023-05-25T08:21:41;101723.25;;;11.94;100.00
5814;BME280;2933;52.302;8.134;2023-05-25T08:26:44;101713.84;;;12.09;100.00
5814;BME280;2933;52.302;8.134;2023-05-25T08:31:47;101716.66;;;12.23;100.00
5814;BME280;2933;52.302;8.134;2023-05-25T08:36:48;101720.97;;;12.42;100.00
5814;BME280;2933;52.302;8.134;2023-05-25T08:41:51;101727.13;;;12.23;100.00
5814;BME280;2933;52.302;8.134;2023-05-25T08:46:55;101728.06;;;12.22;100.00
5814;BME280;2933;52.302;8.134;2023-05-25T08:51:57;101720.69;;;11.92;100.00
5814;BME280;2933;52.302;8.134;2023-05-25T08:57:04;101728.72;;;12.08;100.00
5814;BME280;2933;52.302;8.134;2023-05-25T09:02:25;101741.63;;;12.31;100.00
5814;BME280;2933;52.302;8.134;2023-05-25T09:07:29;101735.50;;;12.12;100.00
5814;BME280;2933;52.302;8.134;2023-05-25T09:12:33;101743.09;;;12.36;100.00
5814;BME280;2933;52.302;8.134;2023-05-25T09:17:36;101738.41;;;12.43;100.00
5814;BME280;2933;52.302;8.134;2023-05-25T09:22:39;101744.94;;;12.71;100.00
5814;BME280;2933;52.302;8.134;2023-05-25T09:27:44;101750.91;;;12.73;100.00
5814;BME280;2933;52.302;8.134;2023-05-25T09:32:46;101747.47;;;12.90;100.00
5814;BME280;2933;52.302;8.134;2023-05-25T09:37:47;101756.41;;;12.86;100.00
5814;BME280;2933;52.302;8.134;2023-05-25T09:42:50;101755.78;;;13.16;98.52
5814;BME280;2933;52.302;8.134;2023-05-25T09:47:53;101757.88;;;13.27;97.97
5814;BME280;2933;52.302;8.134;2023-05-25T09:52:57;101750.22;;;14.05;96.66
5814;BME280;2933;52.302;8.134;2023-05-25T09:58:01;101756.16;;;14.71;92.68
5814;BME280;2933;52.302;8.134;2023-05-25T10:03:02;101767.13;;;14.47;91.96
5814;BME280;2933;52.302;8.134;2023-05-25T10:08:04;101765.94;;;14.37;91.26
5814;BME280;2933;52.302;8.134;2023-05-25T10:13:07;101769.34;;;14.07;91.55
5814;BME280;2933;52.302;8.134;2023-05-25T10:18:11;101762.25;;;14.09;91.60
5814;BME280;2933;52.302;8.134;2023-05-25T10:23:15;101770.97;;;13.94;89.42
5814;BME280;2933;52.302;8.134;2023-05-25T10:28:26;101767.41;;;14.27;89.21
5814;BME280;2933;52.302;8.134;2023-05-25T10:33:28;101767.81;;;14.51;87.19
5814;BME280;2933;52.302;8.134;2023-05-25T10:38:31;101770.66;;;14.78;84.55
5814;BME280;2933;52.302;8.134;2023-05-25T10:43:35;101773.34;;;14.77;87.11
5814;BME280;2933;52.302;8.134;2023-05-25T10:48:38;101769.13;;;14.74;88.65
5814;BME280;2933;52.302;8.134;2023-05-25T10:53:42;101778.06;;;14.39;86.79
5814;BME280;2933;52.302;8.134;2023-05-25T10:58:45;101779.38;;;14.79;82.15
5814;BME280;2933;52.302;8.134;2023-05-25T11:03:53;101764.53;;;15.23;82.59
5814;BME280;2933;52.302;8.134;2023-05-25T11:08:56;101760.88;;;14.64;84.50
5814;BME280;2933;52.302;8.134;2023-05-25T11:14:00;101767.53;;;15.16;81.36
5814;BME280;2933;52.302;8.134;2023-05-25T11:19:02;101760.13;;;15.38;79.68
5814;BME280;2933;52.302;8.134;2023-05-25T11:24:11;101767.38;;;15.92;77.26
5814;BME280;2933;52.302;8.134;2023-05-25T11:29:14;101758.72;;;15.32;81.97
5814;BME280;2933;52.302;8.134;2023-05-25T11:34:16;101762.44;;;14.99;77.75
5814;BME280;2933;52.302;8.134;2023-05-25T11:39:20;101762.72;;;15.09;79.82
5814;BME280;2933;52.302;8.134;2023-05-25T11:44:28;101757.25;;;14.67;80.83
5814;BME280;2933;52.302;8.134;2023-05-25T11:49:30;101757.34;;;14.65;76.99
5814;BME280;2933;52.302;8.134;2023-05-25T11:54:31;101737.84;;;15.58;77.18
5814;BME280;2933;52.302;8.134;2023-05-25T11:59:35;101743.56;;;15.64;76.14
5814;BME280;2933;52.302;8.134;2023-05-25T12:04:38;101730.03;;;15.56;77.14
5814;BME280;2933;52.302;8.134;2023-05-25T12:09:42;101739.88;;;15.81;73.86
5814;BME280;2933;52.302;8.134;2023-05-25T12:14:48;101734.03;;;15.76;74.12
5814;BME280;2933;52.302;8.134;2023-05-25T12:19:50;101723.06;;;15.55;71.28
5814;BME280;2933;52.302;8.134;2023-05-25T12:24:51;101724.00;;;15.83;72.30
5814;BME280;2933;52.302;8.134;2023-05-25T12:29:57;101724.63;;;15.72;73.28
5814;BME280;2933;52.302;8.134;2023-05-25T12:35:03;101722.81;;;15.31;69.59
5814;BME280;2933;52.302;8.134;2023-05-25T12:40:15;101714.34;;;16.51;64.80
5814;BME280;2933;52.302;8.134;2023-05-25T12:45:18;101719.78;;;16.35;64.33
5814;BME280;2933;52.302;8.134;2023-05-25T12:50:20;101717.59;;;15.87;67.12
5814;BME280;2933;52.302;8.134;2023-05-25T12:55:23;101719.75;;;16.62;66.44
5814;BME280;2933;52.302;8.134;2023-05-25T13:00:32;101711.47;;;16.41;67.83
5814;BME280;2933;52.302;8.134;2023-05-25T13:05:35;101710.78;;;16.25;66.20
5814;BME280;2933;52.302;8.134;2023-05-25T13:10:37;101717.72;;;16.53;66.87
5814;BME280;2933;52.302;8.134;2023-05-25T13:15:40;101706.88;;;15.90;65.90
5814;BME280;2933;52.302;8.134;2023-05-25T13:20:41;101703.84;;;16.90;67.90
5814;BME280;2933;52.302;8.134;2023-05-25T13:25:43;101699.13;;;17.21;61.35
5814;BME280;2933;52.302;8.134;2023-05-25T13:30:46;101698.44;;;16.78;66.73
5814;BME280;2933;52.302;8.134;2023-05-25T13:35:48;101701.28;;;16.75;65.22
5814;BME280;2933;52.302;8.134;2023-05-25T13:40:58;101692.03;;;17.21;62.38
5814;BME280;2933;52.302;8.134;2023-05-25T13:46:01;101689.06;;;16.87;61.57
5814;BME280;2933;52.302;8.134;2023-05-25T13:51:02;101695.63;;;17.07;60.14
5814;BME280;2933;52.302;8.134;2023-05-25T13:56:04;101684.22;;;17.20;61.22
5814;BME280;2933;52.302;8.134;2023-05-25T14:01:07;101682.81;;;16.75;61.78
5814;BME280;2933;52.302;8.134;2023-05-25T14:06:09;101689.31;;;17.97;58.58
5814;BME280;2933;52.302;8.134;2023-05-25T14:11:11;101672.56;;;17.72;61.43
5814;BME280;2933;52.302;8.134;2023-05-25T14:16:14;101671.63;;;17.36;62.92
5814;BME280;2933;52.302;8.134;2023-05-25T14:21:15;101663.41;;;16.76;60.61
5814;BME280;2933;52.302;8.134;2023-05-25T14:26:17;101656.50;;;17.38;62.95
5814;BME280;2933;52.302;8.134;2023-05-25T14:31:20;101661.50;;;17.67;62.96
5814;BME280;2933;52.302;8.134;2023-05-25T14:36:21;101656.91;;;17.45;62.05
5814;BME280;2933;52.302;8.134;2023-05-25T14:41:23;101666.25;;;18.35;59.61
5814;BME280;2933;52.302;8.134;2023-05-25T14:46:26;101654.28;;;18.06;60.42
5814;BME280;2933;52.302;8.134;2023-05-25T14:51:28;101656.44;;;17.88;61.65
5814;BME280;2933;52.302;8.134;2023-05-25T14:56:29;101653.44;;;17.32;58.49
5814;BME280;2933;52.302;8.134;2023-05-25T15:01:32;101643.41;;;17.37;58.48
5814;BME280;2933;52.302;8.134;2023-05-25T15:06:33;101656.19;;;18.04;58.00
5814;BME280;2933;52.302;8.134;2023-05-25T15:11:36;101653.97;;;18.22;56.98
5814;BME280;2933;52.302;8.134;2023-05-25T15:16:38;101646.81;;;18.47;60.41
5814;BME280;2933;52.302;8.134;2023-05-25T15:21:40;101644.28;;;18.46;57.68
5814;BME280;2933;52.302;8.134;2023-05-25T15:26:42;101642.09;;;18.28;56.45
5814;BME280;2933;52.302;8.134;2023-05-25T15:31:44;101648.31;;;18.27;56.70
5814;BME280;2933;52.302;8.134;2023-05-25T15:36:46;101647.44;;;18.62;55.42
5814;BME280;2933;52.302;8.134;2023-05-25T15:41:47;101645.81;;;18.25;55.70
5814;BME280;2933;52.302;8.134;2023-05-25T15:46:51;101647.25;;;17.81;56.23
5814;BME280;2933;52.302;8.134;2023-05-25T15:51:53;101647.53;;;17.65;56.03
5814;BME280;2933;52.302;8.134;2023-05-25T15:56:54;101639.44;;;17.55;55.58
5814;BME280;2933;52.302;8.134;2023-05-25T16:01:57;101633.56;;;17.39;57.03
5814;BME280;2933;52.302;8.134;2023-05-25T16:06:58;101641.69;;;17.49;55.65
5814;BME280;2933;52.302;8.134;2023-05-25T16:12:00;101640.28;;;17.56;55.57
5814;BME280;2933;52.302;8.134;2023-05-25T16:17:03;101645.63;;;17.67;56.11
5814;BME280;2933;52.302;8.134;2023-05-25T16:22:05;101646.66;;;17.40;53.46
5814;BME280;2933;52.302;8.134;2023-05-25T16:27:06;101637.13;;;17.14;55.51
5814;BME280;2933;52.302;8.134;2023-05-25T16:32:09;101644.38;;;17.23;57.23
5814;BME280;2933;52.302;8.134;2023-05-25T16:37:11;101634.47;;;17.14;57.54
5814;BME280;2933;52.302;8.134;2023-05-25T16:42:12;101638.81;;;17.02;57.24
5814;BME280;2933;52.302;8.134;2023-05-25T16:47:15;101638.47;;;17.19;58.65
5814;BME280;2933;52.302;8.134;2023-05-25T16:52:17;101639.00;;;17.11;56.05
5814;BME280;2933;52.302;8.134;2023-05-25T16:57:18;101634.69;;;16.72;57.79
5814;BME280;2933;52.302;8.134;2023-05-25T17:02:21;101631.97;;;16.99;58.82
5814;BME280;2933;52.302;8.134;2023-05-25T17:07:23;101635.53;;;16.85;60.48
5814;BME280;2933;52.302;8.134;2023-05-25T17:12:25;101642.63;;;16.85;60.48
5814;BME280;2933;52.302;8.134;2023-05-25T17:17:28;101644.06;;;16.50;59.55
5814;BME280;2933;52.302;8.134;2023-05-25T17:22:29;101643.13;;;16.51;58.92
5814;BME280;2933;52.302;8.134;2023-05-25T17:27:31;101598.03;;;16.28;60.54
5814;BME280;2933;52.302;8.134;2023-05-25T17:32:33;101649.66;;;16.58;60.30
5814;BME280;2933;52.302;8.134;2023-05-25T17:37:35;101642.03;;;16.41;59.38
5814;BME280;2933;52.302;8.134;2023-05-25T17:42:36;101648.81;;;16.45;61.09
5814;BME280;2933;52.302;8.134;2023-05-25T17:47:41;101651.44;;;16.05;59.95
5814;BME280;2933;52.302;8.134;2023-05-25T17:52:42;101662.88;;;16.18;62.92
5814;BME280;2933;52.302;8.134;2023-05-25T17:57:44;101654.63;;;15.82;68.16
5814;BME280;2933;52.302;8.134;2023-05-25T18:02:47;101660.19;;;15.78;70.12
5814;BME280;2933;52.302;8.134;2023-05-25T18:07:48;101653.06;;;15.65;72.30
5814;BME280;2933;52.302;8.134;2023-05-25T18:12:50;101664.13;;;15.29;73.85
5814;BME280;2933;52.302;8.134;2023-05-25T18:17:54;101670.06;;;15.18;74.27
5814;BME280;2933;52.302;8.134;2023-05-25T18:22:56;101665.06;;;14.99;76.08
5814;BME280;2933;52.302;8.134;2023-05-25T18:27:58;101666.66;;;14.57;75.16
5814;BME280;2933;52.302;8.134;2023-05-25T18:33:01;101683.88;;;14.32;74.42
5814;BME280;2933;52.302;8.134;2023-05-25T18:38:03;101685.28;;;14.07;73.81
5814;BME280;2933;52.302;8.134;2023-05-25T18:43:05;101689.13;;;13.85;73.16
5814;BME280;2933;52.302;8.134;2023-05-25T18:48:08;101699.88;;;13.81;73.95
5814;BME280;2933;52.302;8.134;2023-05-25T18:53:10;101698.34;;;13.61;74.68
5814;BME280;2933;52.302;8.134;2023-05-25T18:58:11;101709.69;;;13.77;75.22
5814;BME280;2933;52.302;8.134;2023-05-25T19:03:15;101705.19;;;13.63;75.98
5814;BME280;2933;52.302;8.134;2023-05-25T19:08:16;101702.31;;;13.52;77.18
5814;BME280;2933;52.302;8.134;2023-05-25T19:13:18;101705.06;;;13.33;79.09
5814;BME280;2933;52.302;8.134;2023-05-25T19:18:23;101711.53;;;13.43;79.72
5814;BME280;2933;52.302;8.134;2023-05-25T19:23:24;101711.56;;;13.25;80.96
5814;BME280;2933;52.302;8.134;2023-05-25T19:28:26;101723.09;;;13.05;81.08
5814;BME280;2933;52.302;8.134;2023-05-25T19:33:31;101725.97;;;12.83;81.86
5814;BME280;2933;52.302;8.134;2023-05-25T19:38:33;101723.63;;;12.95;82.45
5814;BME280;2933;52.302;8.134;2023-05-25T19:43:34;101735.56;;;12.83;83.31
5814;BME280;2933;52.302;8.134;2023-05-25T19:48:38;101741.28;;;12.56;85.16
5814;BME280;2933;52.302;8.134;2023-05-25T19:53:40;101747.22;;;12.23;86.70
5814;BME280;2933;52.302;8.134;2023-05-25T19:58:41;101747.09;;;12.26;87.17
5814;BME280;2933;52.302;8.134;2023-05-25T20:03:44;101747.94;;;12.26;87.77
5814;BME280;2933;52.302;8.134;2023-05-25T20:08:46;101748.09;;;12.23;86.80
5814;BME280;2933;52.302;8.134;2023-05-25T20:13:47;101746.31;;;11.86;88.35
5814;BME280;2933;52.302;8.134;2023-05-25T20:18:50;101750.00;;;11.62;89.16
5814;BME280;2933;52.302;8.134;2023-05-25T20:23:52;101750.91;;;11.61;89.39
5814;BME280;2933;52.302;8.134;2023-05-25T20:28:53;101755.06;;;11.46;90.63
5814;BME280;2933;52.302;8.134;2023-05-25T20:33:56;101751.72;;;11.43;91.47
5814;BME280;2933;52.302;8.134;2023-05-25T20:38:58;101754.91;;;11.50;91.77
5814;BME280;2933;52.302;8.134;2023-05-25T20:44:01;101753.44;;;11.23;93.27
5814;BME280;2933;52.302;8.134;2023-05-25T20:49:06;101763.97;;;11.22;94.00
5814;BME280;2933;52.302;8.134;2023-05-25T20:54:08;101767.63;;;11.18;94.46
5814;BME280;2933;52.302;8.134;2023-05-25T20:59:10;101771.50;;;11.29;93.75
5814;BME280;2933;52.302;8.134;2023-05-25T21:04:13;101775.16;;;11.05;94.22
5814;BME280;2933;52.302;8.134;2023-05-25T21:09:14;101772.94;;;10.95;95.87
5814;BME280;2933;52.302;8.134;2023-05-25T21:14:16;101776.56;;;10.71;96.71
5814;BME280;2933;52.302;8.134;2023-05-25T21:19:19;101775.75;;;10.91;96.02
5814;BME280;2933;52.302;8.134;2023-05-25T21:24:20;101778.63;;;10.62;98.00
5814;BME280;2933;52.302;8.134;2023-05-25T21:29:22;101775.00;;;10.44;99.61
5814;BME280;2933;52.302;8.134;2023-05-25T21:34:25;101776.22;;;10.34;100.00
5814;BME280;2933;52.302;8.134;2023-05-25T21:39:26;101773.59;;;10.12;100.00
5814;BME280;2933;52.302;8.134;2023-05-25T21:44:28;101788.44;;;10.33;100.00
5814;BME280;2933;52.302;8.134;2023-05-25T21:49:31;101786.31;;;10.21;100.00
5814;BME280;2933;52.302;8.134;2023-05-25T21:54:33;101785.22;;;10.05;100.00
5814;BME280;2933;52.302;8.134;2023-05-25T21:59:34;101788.59;;;10.07;100.00
5814;BME280;2933;52.302;8.134;2023-05-25T22:04:37;101796.03;;;9.70;100.00
5814;BME280;2933;52.302;8.134;2023-05-25T22:09:39;101800.16;;;9.52;100.00
5814;BME280;2933;52.302;8.134;2023-05-25T22:14:40;101808.34;;;9.66;100.00
5814;BME280;2933;52.302;8.134;2023-05-25T22:19:43;101808.78;;;9.54;100.00
5814;BME280;2933;52.302;8.134;2023-05-25T22:24:45;101804.75;;;9.45;100.00
5814;BME280;2933;52.302;8.134;2023-05-25T22:29:46;101792.66;;;9.43;100.00
5814;BME280;2933;52.302;8.134;2023-05-25T22:34:49;101798.94;;;9.37;100.00
5814;BME280;2933;52.302;8.134;2023-05-25T22:39:50;101800.84;;;9.32;100.00
5814;BME280;2933;52.302;8.134;2023-05-25T22:44:52;101801.28;;;9.19;100.00
5814;BME280;2933;52.302;8.134;2023-05-25T22:49:55;101802.66;;;9.30;100.00
5814;BME280;2933;52.302;8.134;2023-05-25T22:54:56;101802.38;;;9.12;100.00
5814;BME280;2933;52.302;8.134;2023-05-25T22:59:58;101804.28;;;9.07;100.00
5814;BME280;2933;52.302;8.134;2023-05-25T23:05:01;101797.06;;;9.15;100.00
5814;BME280;2933;52.302;8.134;2023-05-25T23:10:03;101790.69;;;9.24;100.00
5814;BME280;2933;52.302;8.134;2023-05-25T23:15:05;101794.72;;;9.08;100.00
5814;BME280;2933;52.302;8.134;2023-05-25T23:20:11;101802.63;;;9.04;100.00
5814;BME280;2933;52.302;8.134;2023-05-25T23:25:12;101799.69;;;9.15;100.00
5814;BME280;2933;52.302;8.134;2023-05-25T23:30:14;101796.66;;;9.01;100.00
5814;BME280;2933;52.302;8.134;2023-05-25T23:35:17;101792.06;;;9.09;100.00
5814;BME280;2933;52.302;8.134;2023-05-25T23:40:18;101798.78;;;9.16;100.00
5814;BME280;2933;52.302;8.134;2023-05-25T23:45:20;101799.06;;;9.07;100.00
5814;BME280;2933;52.302;8.134;2023-05-25T23:50:23;101803.44;;;9.07;100.00
5814;BME280;2933;52.302;8.134;2023-05-25T23:55:26;101801.38;;;8.89;100.00
